createdAt,value
2022-09-10T00:00:08.778Z,3.70
2022-09-10T00:00:18.799Z,4.70
2022-09-10T00:00:28.840Z,4.90
2022-09-10T00:00:38.878Z,5.90
2022-09-10T00:00:48.907Z,4.70
2022-09-10T00:00:58.918Z,4.30
2022-09-10T00:01:08.947Z,3.60
2022-09-10T00:01:18.988Z,4.10
2022-09-10T00:01:29.063Z,3.50
2022-09-10T00:01:39.135Z,3.60
2022-09-10T00:01:49.227Z,3.30
2022-09-10T00:01:59.623Z,4.50
2022-09-10T00:02:09.427Z,4.00
2022-09-10T00:02:19.417Z,4.20
2022-09-10T00:02:29.479Z,2.70
2022-09-10T00:02:39.539Z,3.40
2022-09-10T00:02:49.562Z,3.80
2022-09-10T00:02:59.550Z,4.70
2022-09-10T00:03:09.625Z,3.80
2022-09-10T00:03:19.669Z,4.30
2022-09-10T00:03:29.703Z,4.00
2022-09-10T00:03:39.748Z,3.80
2022-09-10T00:03:49.800Z,3.80
2022-09-10T00:03:59.846Z,3.60
2022-09-10T00:04:09.907Z,3.70
2022-09-10T00:04:19.928Z,4.70
2022-09-10T00:04:29.989Z,5.50
2022-09-10T00:04:40.015Z,5.80
2022-09-10T00:04:50.045Z,5.50
2022-09-10T00:05:00.087Z,4.60
2022-09-10T00:05:10.122Z,3.60
2022-09-10T00:05:20.179Z,2.90
2022-09-10T00:05:30.205Z,3.70
2022-09-10T00:05:40.245Z,5.20
2022-09-10T00:05:50.288Z,4.90
2022-09-10T00:06:00.329Z,4.30
2022-09-10T00:06:10.358Z,4.00
2022-09-10T00:06:20.387Z,5.20
2022-09-10T00:06:30.426Z,5.60
2022-09-10T00:06:40.496Z,5.00
2022-09-10T00:06:50.539Z,4.50
2022-09-10T00:07:00.579Z,4.10
2022-09-10T00:07:10.617Z,3.80
2022-09-10T00:07:20.657Z,3.60
2022-09-10T00:07:30.688Z,3.90
2022-09-10T00:07:40.728Z,4.00
2022-09-10T00:07:50.777Z,4.30
2022-09-10T00:08:00.816Z,3.80
2022-09-10T00:08:10.888Z,5.40
2022-09-10T00:08:20.952Z,5.70
2022-09-10T00:08:31.010Z,5.40
2022-09-10T00:08:41.107Z,4.50
2022-09-10T00:08:51.315Z,4.20
2022-09-10T00:09:01.181Z,5.00
2022-09-10T00:09:11.211Z,4.70
2022-09-10T00:09:21.248Z,4.10
2022-09-10T00:09:31.288Z,4.10
2022-09-10T00:09:41.337Z,4.30
2022-09-10T00:09:51.348Z,5.20
2022-09-10T00:10:01.391Z,4.40
2022-09-10T00:10:11.418Z,3.80
2022-09-10T00:10:21.466Z,2.70
2022-09-10T00:10:31.497Z,2.80
2022-09-10T00:10:41.558Z,4.20
2022-09-10T00:10:51.590Z,5.60
2022-09-10T00:11:01.639Z,5.80
2022-09-10T00:11:11.686Z,5.30
2022-09-10T00:11:21.738Z,5.10
2022-09-10T00:11:31.781Z,6.40
2022-09-10T00:11:41.819Z,5.90
2022-09-10T00:11:51.839Z,4.60
2022-09-10T00:12:01.873Z,3.30
2022-09-10T00:12:11.850Z,4.10
2022-09-10T00:12:21.895Z,4.10
2022-09-10T00:12:31.938Z,5.00
2022-09-10T00:12:41.975Z,4.70
2022-09-10T00:12:52.007Z,4.60
2022-09-10T00:13:02.035Z,4.30
2022-09-10T00:13:12.089Z,3.80
2022-09-10T00:13:22.140Z,3.60
2022-09-10T00:13:32.156Z,3.20
2022-09-10T00:13:42.196Z,4.10
2022-09-10T00:13:52.216Z,5.60
2022-09-10T00:14:02.238Z,6.00
2022-09-10T00:14:12.274Z,5.30
2022-09-10T00:14:22.309Z,3.70
2022-09-10T00:14:32.327Z,3.30
2022-09-10T00:14:42.369Z,2.70
2022-09-10T00:14:52.396Z,4.10
2022-09-10T00:15:02.428Z,4.10
2022-09-10T00:15:12.449Z,4.50
2022-09-10T00:15:22.498Z,4.80
2022-09-10T00:15:32.558Z,4.60
2022-09-10T00:15:42.644Z,6.10
2022-09-10T00:15:52.783Z,6.80
2022-09-10T00:16:02.735Z,7.40
2022-09-10T00:16:12.914Z,5.80
2022-09-10T00:16:23.054Z,4.10
2022-09-10T00:16:33.019Z,4.00
2022-09-10T00:16:43.080Z,4.10
2022-09-10T00:16:53.147Z,3.70
2022-09-10T00:17:03.159Z,3.10
2022-09-10T00:17:13.188Z,3.30
2022-09-10T00:17:23.198Z,3.40
2022-09-10T00:17:33.229Z,3.50
2022-09-10T00:17:43.250Z,4.10
2022-09-10T00:17:53.299Z,5.20
2022-09-10T00:18:03.338Z,5.50
2022-09-10T00:18:13.380Z,3.80
2022-09-10T00:18:23.409Z,2.50
2022-09-10T00:18:33.441Z,2.60
2022-09-10T00:18:43.485Z,3.20
2022-09-10T00:18:53.536Z,4.00
2022-09-10T00:19:03.567Z,5.00
2022-09-10T00:19:13.606Z,10.30
2022-09-10T00:19:23.649Z,10.70
2022-09-10T00:19:33.680Z,9.50
2022-09-10T00:19:43.709Z,5.20
2022-09-10T00:19:53.747Z,4.20
2022-09-10T00:20:03.783Z,4.00
2022-09-10T00:20:13.797Z,2.90
2022-09-10T00:20:23.820Z,4.60
2022-09-10T00:20:33.850Z,5.70
2022-09-10T00:20:43.916Z,6.20
2022-09-10T00:20:53.936Z,4.90
2022-09-10T00:21:03.969Z,3.90
2022-09-10T00:21:14.008Z,5.10
2022-09-10T00:21:24.029Z,4.90
2022-09-10T00:21:34.079Z,4.80
2022-09-10T00:21:44.099Z,3.80
2022-09-10T00:21:54.489Z,3.90
2022-09-10T00:22:04.259Z,5.20
2022-09-10T00:22:14.289Z,4.70
2022-09-10T00:22:24.330Z,4.70
2022-09-10T00:22:34.375Z,3.20
2022-09-10T00:22:44.399Z,3.20
2022-09-10T00:22:54.479Z,3.50
2022-09-10T00:23:04.590Z,3.80
2022-09-10T00:23:14.619Z,4.90
2022-09-10T00:23:24.639Z,5.00
2022-09-10T00:23:34.670Z,5.20
2022-09-10T00:23:44.707Z,4.70
2022-09-10T00:23:54.718Z,4.50
2022-09-10T00:24:04.752Z,4.40
2022-09-10T00:24:14.780Z,3.80
2022-09-10T00:24:24.813Z,3.00
2022-09-10T00:24:34.858Z,2.40
2022-09-10T00:24:44.979Z,2.40
2022-09-10T00:24:55.009Z,2.90
2022-09-10T00:25:08.227Z,3.80
2022-09-10T00:25:15.143Z,4.00
2022-09-10T00:25:25.179Z,4.30
2022-09-10T00:25:35.198Z,3.40
2022-09-10T00:25:45.230Z,3.20
2022-09-10T00:25:55.268Z,3.20
2022-09-10T00:26:05.287Z,3.80
2022-09-10T00:26:15.318Z,4.10
2022-09-10T00:26:25.348Z,5.10
2022-09-10T00:26:35.369Z,5.80
2022-09-10T00:26:45.400Z,5.60
2022-09-10T00:26:55.460Z,6.40
2022-09-10T00:27:05.481Z,5.50
2022-09-10T00:27:15.528Z,5.00
2022-09-10T00:27:25.569Z,4.20
2022-09-10T00:27:35.608Z,4.60
2022-09-10T00:27:45.629Z,4.30
2022-09-10T00:27:55.689Z,4.80
2022-09-10T00:28:05.728Z,4.60
2022-09-10T00:28:15.776Z,6.20
2022-09-10T00:28:25.799Z,4.20
2022-09-10T00:28:35.839Z,4.50
2022-09-10T00:28:45.872Z,3.20
2022-09-10T00:28:55.917Z,3.00
2022-09-10T00:29:05.945Z,3.80
2022-09-10T00:29:15.976Z,3.80
2022-09-10T00:29:26.008Z,4.90
2022-09-10T00:29:36.047Z,4.20
2022-09-10T00:29:46.078Z,4.70
2022-09-10T00:29:56.120Z,4.50
2022-09-10T00:30:06.147Z,4.30
2022-09-10T00:30:16.185Z,3.40
2022-09-10T00:30:26.219Z,3.60
2022-09-10T00:30:36.259Z,3.60
2022-09-10T00:30:46.289Z,3.60
2022-09-10T00:30:56.338Z,2.80
2022-09-10T00:31:06.430Z,2.30
2022-09-10T00:31:16.521Z,2.30
2022-09-10T00:31:26.671Z,4.20
2022-09-10T00:31:36.784Z,4.60
2022-09-10T00:31:46.910Z,5.90
2022-09-10T00:31:56.976Z,4.70
2022-09-10T00:32:06.990Z,4.80
2022-09-10T00:32:17.019Z,4.20
2022-09-10T00:32:27.039Z,4.80
2022-09-10T00:32:37.098Z,4.90
2022-09-10T00:32:47.122Z,5.00
2022-09-10T00:32:57.158Z,4.80
2022-09-10T00:33:07.197Z,6.50
2022-09-10T00:33:17.250Z,6.60
2022-09-10T00:33:27.282Z,8.10
2022-09-10T00:33:37.306Z,7.70
2022-09-10T00:33:47.348Z,10.60
2022-09-10T00:33:57.370Z,11.40
2022-09-10T00:34:07.420Z,11.30
2022-09-10T00:34:17.450Z,8.90
2022-09-10T00:34:27.477Z,9.10
2022-09-10T00:34:37.489Z,9.70
2022-09-10T00:34:47.531Z,11.00
2022-09-10T00:34:57.558Z,10.40
2022-09-10T00:35:07.599Z,10.50
2022-09-10T00:35:17.629Z,10.90
2022-09-10T00:35:27.678Z,10.50
2022-09-10T00:35:37.719Z,12.40
2022-09-10T00:35:47.738Z,11.50
2022-09-10T00:35:57.768Z,10.50
2022-09-10T00:36:07.808Z,7.90
2022-09-10T00:36:17.849Z,9.00
2022-09-10T00:36:27.878Z,9.80
2022-09-10T00:36:37.930Z,10.10
2022-09-10T00:36:47.957Z,8.10
2022-09-10T00:36:57.990Z,7.70
2022-09-10T00:37:08.029Z,8.10
2022-09-10T00:37:18.058Z,8.60
2022-09-10T00:37:28.208Z,8.00
2022-09-10T00:37:38.228Z,7.30
2022-09-10T00:37:48.267Z,8.00
2022-09-10T00:37:58.298Z,8.10
2022-09-10T00:38:08.337Z,7.00
2022-09-10T00:38:18.368Z,5.20
2022-09-10T00:38:28.411Z,5.50
2022-09-10T00:38:38.469Z,7.50
2022-09-10T00:38:48.528Z,9.20
2022-09-10T00:38:58.559Z,8.90
2022-09-10T00:39:08.596Z,7.40
2022-09-10T00:39:18.630Z,6.20
2022-09-10T00:39:28.699Z,6.10
2022-09-10T00:39:38.771Z,6.00
2022-09-10T00:39:48.846Z,6.20
2022-09-10T00:39:58.965Z,6.40
2022-09-10T00:40:08.954Z,6.70
2022-09-10T00:40:18.988Z,6.40
2022-09-10T00:40:29.019Z,5.60
2022-09-10T00:40:39.038Z,5.80
2022-09-10T00:40:49.076Z,4.90
2022-09-10T00:40:59.108Z,6.00
2022-09-10T00:41:09.148Z,6.10
2022-09-10T00:41:19.189Z,6.50
2022-09-10T00:41:29.220Z,6.60
2022-09-10T00:41:39.275Z,6.70
2022-09-10T00:41:49.298Z,6.70
2022-09-10T00:41:59.320Z,6.90
2022-09-10T00:42:09.339Z,6.60
2022-09-10T00:42:19.369Z,6.40
2022-09-10T00:42:29.398Z,6.40
2022-09-10T00:42:39.437Z,6.10
2022-09-10T00:42:49.469Z,6.60
2022-09-10T00:42:59.527Z,5.10
2022-09-10T00:43:09.568Z,4.70
2022-09-10T00:43:19.626Z,4.10
2022-09-10T00:43:29.669Z,6.40
2022-09-10T00:43:39.706Z,6.20
2022-09-10T00:43:49.735Z,6.40
2022-09-10T00:43:59.798Z,5.30
2022-09-10T00:44:09.830Z,5.20
2022-09-10T00:44:19.870Z,5.50
2022-09-10T00:44:32.628Z,5.20
2022-09-10T00:44:40.852Z,5.30
2022-09-10T00:44:50.877Z,4.80
2022-09-10T00:45:00.929Z,4.80
2022-09-10T00:45:10.958Z,4.20
2022-09-10T00:45:20.995Z,5.20
2022-09-10T00:45:31.027Z,5.30
2022-09-10T00:45:41.117Z,6.60
2022-09-10T00:45:51.179Z,6.40
2022-09-10T00:46:01.223Z,6.50
2022-09-10T00:46:11.270Z,6.00
2022-09-10T00:46:21.311Z,6.30
2022-09-10T00:46:31.340Z,6.10
2022-09-10T00:46:41.386Z,5.60
2022-09-10T00:46:51.420Z,5.00
2022-09-10T00:47:01.480Z,4.30
2022-09-10T00:47:11.507Z,4.40
2022-09-10T00:47:21.548Z,4.00
2022-09-10T00:47:31.589Z,4.50
2022-09-10T00:47:41.622Z,5.10
2022-09-10T00:47:51.659Z,5.60
2022-09-10T00:48:01.735Z,6.00
2022-09-10T00:48:11.779Z,5.40
2022-09-10T00:48:21.837Z,6.60
2022-09-10T00:48:31.894Z,7.30
2022-09-10T00:48:41.939Z,7.80
2022-09-10T00:48:51.970Z,6.40
2022-09-10T00:49:02.023Z,5.20
2022-09-10T00:49:12.047Z,5.30
2022-09-10T00:49:22.097Z,6.90
2022-09-10T00:49:32.129Z,8.40
2022-09-10T00:49:42.176Z,9.20
2022-09-10T00:49:52.206Z,8.00
2022-09-10T00:50:02.266Z,6.50
2022-09-10T00:50:12.288Z,5.90
2022-09-10T00:50:22.338Z,6.50
2022-09-10T00:50:32.370Z,7.10
2022-09-10T00:50:42.393Z,6.30
2022-09-10T00:50:52.416Z,5.60
2022-09-10T00:51:02.449Z,5.20
2022-09-10T00:51:12.498Z,6.40
2022-09-10T00:51:22.539Z,5.80
2022-09-10T00:51:32.588Z,6.20
2022-09-10T00:51:42.670Z,5.10
2022-09-10T00:51:52.689Z,6.60
2022-09-10T00:52:02.759Z,6.60
2022-09-10T00:52:13.417Z,6.70
2022-09-10T00:52:22.932Z,5.80
2022-09-10T00:52:34.466Z,5.20
2022-09-10T00:52:43.114Z,5.40
2022-09-10T00:52:53.230Z,5.30
2022-09-10T00:53:03.307Z,5.40
2022-09-10T00:53:13.349Z,4.40
2022-09-10T00:53:23.416Z,4.60
2022-09-10T00:53:33.448Z,4.60
2022-09-10T00:53:43.489Z,5.50
2022-09-10T00:53:53.498Z,5.70
2022-09-10T00:54:03.578Z,5.90
2022-09-10T00:54:13.610Z,5.70
2022-09-10T00:54:23.642Z,4.80
2022-09-10T00:54:33.672Z,4.20
2022-09-10T00:54:43.709Z,4.40
2022-09-10T00:54:53.737Z,4.00
2022-09-10T00:55:03.758Z,4.30
2022-09-10T00:55:13.800Z,3.70
2022-09-10T00:55:23.838Z,4.10
2022-09-10T00:55:33.859Z,3.80
2022-09-10T00:55:43.889Z,3.60
2022-09-10T00:55:53.926Z,5.00
2022-09-10T00:56:03.958Z,5.20
2022-09-10T00:56:14.002Z,5.70
2022-09-10T00:56:24.017Z,5.30
2022-09-10T00:56:34.047Z,5.80
2022-09-10T00:56:44.058Z,6.40
2022-09-10T00:56:54.091Z,5.50
2022-09-10T00:57:04.117Z,4.50
2022-09-10T00:57:14.146Z,3.70
2022-09-10T00:57:24.198Z,3.80
2022-09-10T00:57:34.230Z,4.50
2022-09-10T00:57:44.257Z,4.90
2022-09-10T00:57:54.288Z,5.10
2022-09-10T00:58:04.298Z,4.90
2022-09-10T00:58:14.320Z,4.80
2022-09-10T00:58:24.372Z,4.70
2022-09-10T00:58:34.445Z,5.20
2022-09-10T00:58:44.508Z,4.70
2022-09-10T00:58:54.536Z,3.90
2022-09-10T00:59:04.548Z,3.30
2022-09-10T00:59:14.580Z,3.00
2022-09-10T00:59:24.607Z,3.40
2022-09-10T00:59:34.639Z,3.70
2022-09-10T00:59:44.669Z,4.40
2022-09-10T00:59:54.711Z,4.50
2022-09-10T01:00:04.738Z,5.00
2022-09-10T01:00:14.768Z,4.50
2022-09-10T01:00:24.821Z,3.60
2022-09-10T01:00:34.887Z,3.90
2022-09-10T01:00:44.840Z,4.20
2022-09-10T01:00:54.947Z,6.40
2022-09-10T01:01:05.001Z,5.20
2022-09-10T01:01:15.032Z,5.30
2022-09-10T01:01:25.036Z,4.50
2022-09-10T01:01:35.100Z,5.30
2022-09-10T01:01:45.199Z,6.30
2022-09-10T01:01:55.275Z,5.70
2022-09-10T01:02:05.320Z,5.30
2022-09-10T01:02:15.427Z,4.90
2022-09-10T01:02:25.445Z,6.00
2022-09-10T01:02:35.486Z,5.70
2022-09-10T01:02:45.497Z,5.90
2022-09-10T01:02:55.512Z,4.80
2022-09-10T01:03:05.529Z,5.40
2022-09-10T01:03:15.556Z,4.80
2022-09-10T01:03:25.893Z,4.80
2022-09-10T01:03:35.739Z,5.10
2022-09-10T01:03:45.748Z,5.10
2022-09-10T01:03:55.780Z,5.90
2022-09-10T01:04:05.807Z,6.70
2022-09-10T01:04:15.828Z,6.30
2022-09-10T01:04:25.958Z,6.70
2022-09-10T01:04:35.978Z,5.30
2022-09-10T01:04:46.009Z,5.50
2022-09-10T01:04:56.048Z,4.20
2022-09-10T01:05:06.081Z,4.60
2022-09-10T01:05:16.097Z,4.40
2022-09-10T01:05:26.119Z,3.60
2022-09-10T01:05:36.161Z,4.10
2022-09-10T01:05:46.198Z,3.90
2022-09-10T01:05:56.219Z,4.40
2022-09-10T01:06:06.250Z,4.10
2022-09-10T01:06:16.275Z,4.30
2022-09-10T01:06:26.316Z,4.10
2022-09-10T01:06:36.339Z,3.40
2022-09-10T01:06:46.372Z,3.40
2022-09-10T01:06:56.388Z,4.30
2022-09-10T01:07:06.425Z,4.00
2022-09-10T01:07:16.468Z,3.50
2022-09-10T01:07:26.516Z,3.10
2022-09-10T01:07:36.549Z,4.50
2022-09-10T01:07:46.588Z,6.20
2022-09-10T01:07:56.608Z,5.80
2022-09-10T01:08:06.646Z,4.80
2022-09-10T01:08:16.668Z,3.90
2022-09-10T01:08:26.711Z,3.80
2022-09-10T01:08:36.818Z,4.10
2022-09-10T01:08:46.878Z,5.60
2022-09-10T01:08:56.915Z,5.40
2022-09-10T01:09:06.948Z,5.60
2022-09-10T01:09:16.979Z,4.50
2022-09-10T01:09:27.016Z,4.90
2022-09-10T01:09:37.058Z,4.40
2022-09-10T01:09:47.089Z,5.10
2022-09-10T01:09:57.128Z,7.70
2022-09-10T01:10:07.159Z,9.10
2022-09-10T01:10:17.189Z,8.10
2022-09-10T01:10:27.234Z,7.00
2022-09-10T01:10:37.278Z,5.50
2022-09-10T01:10:47.298Z,5.70
2022-09-10T01:10:57.337Z,5.40
2022-09-10T01:11:07.368Z,4.80
2022-09-10T01:11:17.398Z,4.90
2022-09-10T01:11:27.435Z,3.40
2022-09-10T01:11:37.478Z,3.90
2022-09-10T01:11:47.539Z,2.80
2022-09-10T01:11:57.568Z,4.80
2022-09-10T01:12:07.607Z,4.70
2022-09-10T01:12:17.647Z,8.90
2022-09-10T01:12:27.678Z,7.00
2022-09-10T01:12:37.706Z,7.10
2022-09-10T01:12:47.726Z,4.40
2022-09-10T01:12:57.748Z,4.70
2022-09-10T01:13:07.784Z,5.20
2022-09-10T01:13:17.807Z,4.40
2022-09-10T01:13:27.848Z,5.50
2022-09-10T01:13:37.878Z,5.20
2022-09-10T01:13:47.917Z,6.30
2022-09-10T01:13:57.958Z,4.50
2022-09-10T01:14:07.969Z,3.60
2022-09-10T01:14:17.997Z,2.90
2022-09-10T01:14:28.018Z,3.30
2022-09-10T01:14:38.084Z,3.80
2022-09-10T01:14:48.107Z,5.10
2022-09-10T01:14:58.138Z,4.50
2022-09-10T01:15:08.167Z,4.20
2022-09-10T01:15:18.199Z,3.00
2022-09-10T01:15:28.235Z,3.50
2022-09-10T01:15:38.279Z,4.40
2022-09-10T01:15:48.306Z,4.50
2022-09-10T01:15:58.399Z,5.40
2022-09-10T01:16:08.471Z,5.00
2022-09-10T01:16:18.528Z,4.00
2022-09-10T01:16:28.624Z,5.30
2022-09-10T01:16:38.567Z,4.90
2022-09-10T01:16:48.598Z,5.50
2022-09-10T01:16:58.635Z,3.50
2022-09-10T01:17:08.680Z,4.20
2022-09-10T01:17:18.698Z,3.90
2022-09-10T01:17:28.728Z,3.80
2022-09-10T01:17:38.767Z,3.50
2022-09-10T01:17:48.805Z,3.80
2022-09-10T01:17:58.838Z,4.00
2022-09-10T01:18:08.876Z,4.10
2022-09-10T01:18:18.917Z,4.60
2022-09-10T01:18:28.966Z,5.10
2022-09-10T01:18:39.114Z,4.60
2022-09-10T01:18:49.058Z,4.60
2022-09-10T01:18:59.098Z,5.30
2022-09-10T01:19:09.129Z,5.60
2022-09-10T01:19:19.149Z,5.80
2022-09-10T01:20:06.383Z,3.90
2022-09-10T01:20:16.442Z,4.50
2022-09-10T01:20:26.503Z,3.90
2022-09-10T01:20:36.602Z,3.50
2022-09-10T01:20:46.672Z,3.30
2022-09-10T01:20:56.778Z,3.00
2022-09-10T01:21:06.853Z,4.00
2022-09-10T01:21:16.931Z,4.10
2022-09-10T01:21:27.045Z,6.00
2022-09-10T01:21:37.122Z,6.40
2022-09-10T01:21:47.213Z,5.90
2022-09-10T01:21:57.276Z,9.30
2022-09-10T01:22:08.253Z,8.40
2022-09-10T01:22:17.622Z,9.00
2022-09-10T01:22:27.693Z,4.80
2022-09-10T01:22:37.772Z,4.60
2022-09-10T01:22:47.843Z,4.40
2022-09-10T01:22:57.923Z,5.60
2022-09-10T01:23:07.983Z,5.60
2022-09-10T01:23:18.168Z,5.40
2022-09-10T01:23:28.094Z,4.00
2022-09-10T01:23:38.160Z,3.80
2022-09-10T01:23:48.226Z,3.70
2022-09-10T01:23:58.301Z,4.30
2022-09-10T01:24:08.353Z,4.40
2022-09-10T01:24:18.447Z,5.10
2022-09-10T01:24:28.434Z,6.00
2022-09-10T01:24:38.491Z,6.10
2022-09-10T01:24:48.556Z,6.20
2022-09-10T01:24:58.625Z,5.50
2022-09-10T01:25:08.693Z,7.00
2022-09-10T01:25:18.786Z,5.70
2022-09-10T01:25:28.857Z,5.40
2022-09-10T01:25:38.913Z,4.30
2022-09-10T01:25:48.992Z,4.50
2022-09-10T01:25:59.052Z,3.50
2022-09-10T01:26:09.133Z,3.20
2022-09-10T01:26:19.203Z,3.20
2022-09-10T01:26:29.283Z,3.40
2022-09-10T01:26:39.351Z,3.00
2022-09-10T01:26:49.424Z,3.90
2022-09-10T01:26:59.471Z,4.40
2022-09-10T01:27:09.545Z,4.10
2022-09-10T01:27:19.612Z,4.10
2022-09-10T01:27:29.672Z,4.90
2022-09-10T01:27:39.745Z,5.90
2022-09-10T01:27:49.811Z,6.00
2022-09-10T01:27:59.896Z,6.20
2022-09-10T01:28:09.964Z,6.90
2022-09-10T01:28:20.033Z,5.70
2022-09-10T01:28:30.116Z,4.60
2022-09-10T01:28:40.201Z,3.20
2022-09-10T01:28:50.274Z,3.50
2022-09-10T01:29:00.354Z,3.70
2022-09-10T01:29:10.425Z,4.60
2022-09-10T01:29:20.515Z,4.90
2022-09-10T01:29:30.590Z,5.10
2022-09-10T01:29:40.662Z,6.00
2022-09-10T01:29:50.750Z,5.90
2022-09-10T01:30:00.823Z,6.00
2022-09-10T01:30:10.913Z,5.90
2022-09-10T01:30:20.998Z,6.40
2022-09-10T01:30:31.072Z,5.90
2022-09-10T01:30:41.133Z,4.50
2022-09-10T01:30:51.202Z,4.20
2022-09-10T01:31:01.270Z,4.50
2022-09-10T01:31:11.470Z,4.60
2022-09-10T01:31:21.430Z,4.30
2022-09-10T01:31:31.546Z,5.90
2022-09-10T01:31:41.641Z,6.10
2022-09-10T01:31:51.697Z,6.00
2022-09-10T01:32:01.765Z,5.80
2022-09-10T01:32:11.833Z,6.10
2022-09-10T01:32:21.904Z,6.10
2022-09-10T01:32:31.973Z,4.70
2022-09-10T01:32:42.050Z,4.40
2022-09-10T01:32:52.114Z,5.00
2022-09-10T01:33:02.183Z,4.50
2022-09-10T01:33:12.264Z,4.10
2022-09-10T01:33:22.333Z,3.30
2022-09-10T01:33:32.432Z,4.20
2022-09-10T01:33:42.541Z,3.80
2022-09-10T01:33:52.604Z,3.70
2022-09-10T01:34:02.682Z,3.30
2022-09-10T01:34:12.743Z,3.70
2022-09-10T01:34:22.858Z,4.80
2022-09-10T01:34:32.871Z,4.70
2022-09-10T01:34:42.952Z,4.80
2022-09-10T01:34:53.063Z,4.80
2022-09-10T01:35:03.133Z,4.40
2022-09-10T01:35:13.203Z,4.00
2022-09-10T01:35:23.273Z,4.00
2022-09-10T01:35:33.361Z,5.00
2022-09-10T01:35:43.432Z,4.60
2022-09-10T01:35:53.513Z,4.30
2022-09-10T01:36:03.595Z,3.60
2022-09-10T01:36:13.673Z,4.20
2022-09-10T01:36:23.736Z,3.90
2022-09-10T01:36:33.834Z,3.90
2022-09-10T01:36:43.927Z,3.60
2022-09-10T01:36:53.998Z,3.70
2022-09-10T01:37:04.072Z,3.90
2022-09-10T01:37:14.176Z,5.30
2022-09-10T01:37:24.283Z,5.90
2022-09-10T01:37:34.363Z,6.50
2022-09-10T01:37:44.436Z,5.60
2022-09-10T01:37:54.520Z,5.10
2022-09-10T01:38:04.593Z,3.90
2022-09-10T01:38:14.681Z,3.20
2022-09-10T01:38:24.829Z,4.20
2022-09-10T01:38:34.955Z,4.50
2022-09-10T01:38:44.901Z,5.50
2022-09-10T01:38:54.983Z,4.10
2022-09-10T01:39:05.053Z,3.90
2022-09-10T01:39:15.143Z,3.20
2022-09-10T01:39:25.273Z,3.60
2022-09-10T01:39:35.399Z,4.00
2022-09-10T01:39:45.535Z,5.30
2022-09-10T01:39:55.634Z,5.10
2022-09-10T01:40:05.744Z,5.70
2022-09-10T01:40:15.792Z,4.10
2022-09-10T01:40:25.874Z,4.50
2022-09-10T01:40:35.951Z,4.50
2022-09-10T01:40:46.024Z,5.80
2022-09-10T01:40:56.093Z,5.30
2022-09-10T01:41:06.163Z,6.70
2022-09-10T01:41:16.264Z,5.60
2022-09-10T01:41:26.362Z,5.30
2022-09-10T01:41:36.430Z,4.00
2022-09-10T01:41:46.511Z,4.20
2022-09-10T01:41:56.603Z,5.10
2022-09-10T01:42:06.663Z,6.40
2022-09-10T01:42:16.762Z,7.60
2022-09-10T01:42:26.864Z,6.50
2022-09-10T01:42:36.943Z,5.60
2022-09-10T01:42:47.021Z,5.20
2022-09-10T01:42:57.094Z,5.60
2022-09-10T01:43:07.199Z,5.60
2022-09-10T01:43:17.263Z,5.10
2022-09-10T01:43:27.360Z,4.90
2022-09-10T01:43:37.433Z,4.90
2022-09-10T01:43:47.513Z,5.90
2022-09-10T01:43:57.583Z,6.10
2022-09-10T01:44:07.680Z,5.20
2022-09-10T01:44:17.763Z,4.70
2022-09-10T01:44:27.843Z,5.20
2022-09-10T01:44:37.923Z,4.60
2022-09-10T01:44:48.012Z,4.10
2022-09-10T01:44:58.093Z,4.00
2022-09-10T01:45:08.162Z,6.60
2022-09-10T01:45:18.232Z,6.30
2022-09-10T01:45:28.334Z,5.30
2022-09-10T01:45:38.456Z,3.40
2022-09-10T01:45:48.574Z,5.10
2022-09-10T01:45:58.711Z,5.80
2022-09-10T01:46:08.782Z,5.90
2022-09-10T01:46:18.850Z,4.40
2022-09-10T01:46:28.973Z,3.90
2022-09-10T01:46:39.041Z,3.90
2022-09-10T01:46:49.114Z,4.50
2022-09-10T01:46:59.184Z,6.60
2022-09-10T01:47:09.250Z,6.50
2022-09-10T01:47:19.323Z,6.00
2022-09-10T01:47:29.453Z,5.70
2022-09-10T01:47:39.533Z,6.60
2022-09-10T01:47:49.620Z,6.50
2022-09-10T01:47:59.682Z,4.40
2022-09-10T01:48:09.763Z,3.80
2022-09-10T01:48:19.841Z,4.90
2022-09-10T01:48:29.913Z,5.10
2022-09-10T01:48:40.013Z,4.20
2022-09-10T01:48:50.104Z,3.70
2022-09-10T01:49:00.201Z,5.20
2022-09-10T01:49:10.263Z,6.20
2022-09-10T01:49:20.343Z,6.60
2022-09-10T01:49:30.413Z,5.40
2022-09-10T01:49:40.500Z,4.70
2022-09-10T01:49:50.563Z,4.20
2022-09-10T01:50:00.643Z,4.50
2022-09-10T01:50:10.722Z,3.80
2022-09-10T01:50:20.783Z,4.00
2022-09-10T01:50:30.864Z,3.70
2022-09-10T01:50:40.932Z,4.40
2022-09-10T01:50:51.004Z,4.50
2022-09-10T01:51:01.133Z,4.50
2022-09-10T01:51:11.211Z,4.90
2022-09-10T01:51:21.332Z,3.50
2022-09-10T01:51:31.443Z,4.80
2022-09-10T01:51:41.521Z,5.10
2022-09-10T01:51:51.593Z,5.40
2022-09-10T01:52:01.673Z,4.20
2022-09-10T01:52:11.742Z,3.90
2022-09-10T01:52:21.813Z,4.00
2022-09-10T01:52:31.882Z,4.20
2022-09-10T01:52:41.951Z,3.10
2022-09-10T01:52:52.012Z,2.90
2022-09-10T01:53:02.093Z,3.80
2022-09-10T01:53:12.179Z,3.80
2022-09-10T01:53:22.319Z,4.10
2022-09-10T01:53:32.373Z,4.30
2022-09-10T01:53:42.453Z,5.60
2022-09-10T01:53:52.516Z,6.10
2022-09-10T01:54:02.591Z,5.00
2022-09-10T01:54:12.646Z,3.90
2022-09-10T01:54:22.722Z,3.80
2022-09-10T01:54:32.792Z,4.20
2022-09-10T01:54:42.882Z,3.70
2022-09-10T01:54:52.941Z,3.30
2022-09-10T01:55:03.132Z,5.60
2022-09-10T01:55:13.191Z,6.30
2022-09-10T01:55:23.269Z,6.50
2022-09-10T01:55:33.333Z,4.30
2022-09-10T01:55:43.420Z,4.20
2022-09-10T01:55:53.493Z,3.60
2022-09-10T01:56:03.573Z,3.60
2022-09-10T01:56:13.652Z,3.40
2022-09-10T01:56:23.734Z,3.30
2022-09-10T01:56:33.792Z,2.90
2022-09-10T01:56:43.858Z,3.70
2022-09-10T01:56:53.943Z,4.00
2022-09-10T01:57:04.004Z,3.90
2022-09-10T01:57:14.083Z,5.70
2022-09-10T01:57:24.164Z,6.10
2022-09-10T01:57:34.243Z,6.60
2022-09-10T01:57:44.311Z,5.00
2022-09-10T01:57:54.381Z,5.30
2022-09-10T01:58:04.463Z,4.70
2022-09-10T01:58:14.543Z,4.40
2022-09-10T01:58:24.649Z,3.70
2022-09-10T01:58:34.788Z,4.00
2022-09-10T01:58:44.843Z,4.10
2022-09-10T01:58:54.981Z,4.20
2022-09-10T01:59:05.053Z,5.50
2022-09-10T01:59:15.112Z,5.20
2022-09-10T01:59:25.194Z,5.70
2022-09-10T01:59:35.253Z,3.70
2022-09-10T01:59:45.352Z,3.60
2022-09-10T01:59:55.432Z,4.10
2022-09-10T02:00:05.502Z,4.60
2022-09-10T02:00:15.589Z,5.50
2022-09-10T02:00:25.663Z,5.10
2022-09-10T02:00:35.760Z,4.90
2022-09-10T02:00:45.920Z,5.00
2022-09-10T02:00:55.885Z,4.80
2022-09-10T02:01:06.007Z,5.30
2022-09-10T02:01:16.144Z,4.50
2022-09-10T02:01:26.240Z,6.80
2022-09-10T02:01:36.333Z,7.00
2022-09-10T02:01:46.400Z,6.70
2022-09-10T02:01:56.509Z,3.30
2022-09-10T02:02:06.629Z,3.40
2022-09-10T02:02:16.815Z,3.30
2022-09-10T02:02:26.878Z,5.40
2022-09-10T02:02:36.972Z,5.50
2022-09-10T02:02:47.041Z,6.30
2022-09-10T02:02:57.122Z,5.70
2022-09-10T02:03:07.222Z,4.80
2022-09-10T02:03:17.297Z,4.70
2022-09-10T02:03:27.384Z,3.70
2022-09-10T02:03:37.454Z,4.80
2022-09-10T02:03:47.524Z,4.70
2022-09-10T02:03:57.614Z,4.70
2022-09-10T02:04:07.673Z,4.20
2022-09-10T02:04:17.779Z,4.20
2022-09-10T02:04:27.855Z,4.30
2022-09-10T02:04:37.935Z,3.50
2022-09-10T02:04:48.000Z,4.30
2022-09-10T02:04:58.109Z,4.70
2022-09-10T02:05:08.200Z,5.30
2022-09-10T02:05:18.262Z,6.30
2022-09-10T02:05:28.341Z,6.30
2022-09-10T02:05:38.441Z,6.00
2022-09-10T02:05:48.524Z,4.80
2022-09-10T02:05:58.599Z,3.90
2022-09-10T02:06:08.692Z,4.40
2022-09-10T02:06:18.769Z,4.80
2022-09-10T02:06:28.822Z,5.40
2022-09-10T02:06:38.890Z,4.90
2022-09-10T02:06:49.069Z,4.80
2022-09-10T02:06:59.010Z,4.70
2022-09-10T02:07:09.082Z,5.20
2022-09-10T02:07:19.172Z,4.10
2022-09-10T02:07:29.259Z,3.30
2022-09-10T02:07:39.333Z,4.00
2022-09-10T02:07:49.420Z,5.30
2022-09-10T02:07:59.514Z,5.90
2022-09-10T02:08:09.589Z,5.70
2022-09-10T02:08:19.694Z,5.00
2022-09-10T02:08:29.799Z,5.90
2022-09-10T02:08:39.957Z,6.30
2022-09-10T02:08:49.892Z,6.30
2022-09-10T02:09:00.023Z,4.80
2022-09-10T02:09:10.101Z,3.70
2022-09-10T02:09:20.170Z,4.00
2022-09-10T02:09:30.240Z,3.70
2022-09-10T02:09:40.324Z,4.10
2022-09-10T02:09:50.373Z,3.40
2022-09-10T02:10:00.462Z,3.20
2022-09-10T02:10:10.532Z,3.50
2022-09-10T02:10:20.603Z,4.00
2022-09-10T02:10:30.671Z,5.10
2022-09-10T02:10:40.742Z,4.70
2022-09-10T02:10:50.812Z,4.30
2022-09-10T02:11:00.892Z,3.90
2022-09-10T02:11:10.940Z,4.10
2022-09-10T02:11:21.013Z,4.30
2022-09-10T02:11:31.069Z,4.60
2022-09-10T02:11:41.143Z,4.70
2022-09-10T02:11:51.241Z,4.50
2022-09-10T02:12:01.312Z,3.60
2022-09-10T02:12:11.382Z,2.80
2022-09-10T02:12:21.457Z,4.40
2022-09-10T02:12:31.582Z,5.40
2022-09-10T02:12:41.652Z,5.80
2022-09-10T02:12:51.721Z,5.50
2022-09-10T02:13:01.822Z,4.80
2022-09-10T02:13:11.893Z,5.20
2022-09-10T02:13:21.962Z,4.90
2022-09-10T02:13:32.033Z,4.10
2022-09-10T02:13:42.113Z,4.30
2022-09-10T02:13:52.202Z,3.80
2022-09-10T02:14:02.262Z,4.30
2022-09-10T02:14:12.334Z,3.80
2022-09-10T02:14:22.419Z,4.20
2022-09-10T02:14:32.471Z,3.90